createdAt,value
2019-03-13T00:02:24.448Z,4.38
2019-03-13T00:05:12.189Z,4.38
2019-03-13T00:07:42.948Z,4.39
2019-03-13T00:10:14.058Z,4.39
2019-03-13T00:12:43.726Z,4.38
2019-03-13T00:15:15.153Z,4.39
2019-03-13T00:17:45.252Z,4.39
2019-03-13T00:20:16.295Z,4.41
2019-03-13T00:22:47.508Z,4.42
2019-03-13T00:25:17.447Z,4.44
2019-03-13T00:27:47.133Z,4.45
2019-03-13T00:30:16.937Z,4.45
2019-03-13T00:32:46.959Z,4.45
2019-03-13T00:35:16.636Z,4.45
2019-03-13T00:37:46.739Z,4.46
2019-03-13T00:40:16.422Z,4.45
2019-03-13T00:42:46.083Z,4.46
2019-03-13T00:45:16.348Z,4.46
2019-03-13T00:47:47.244Z,4.46
2019-03-13T00:50:22.957Z,4.47
2019-03-13T00:52:52.707Z,4.50
2019-03-13T00:55:22.376Z,4.53
2019-03-13T00:57:52.105Z,4.54
2019-03-13T01:00:36.017Z,4.53
2019-03-13T01:03:07.515Z,4.51
2019-03-13T01:05:38.835Z,4.52
2019-03-13T01:08:08.579Z,4.52
2019-03-13T01:10:38.319Z,4.53
2019-03-13T01:13:07.995Z,4.55
2019-03-13T01:15:38.043Z,4.57
2019-03-13T01:18:08.204Z,4.58
2019-03-13T01:20:38.218Z,4.60
2019-03-13T01:23:08.913Z,4.60
2019-03-13T01:25:38.691Z,4.60
2019-03-13T01:28:08.362Z,4.62
2019-03-13T01:30:42.390Z,4.62
2019-03-13T01:33:13.900Z,4.63
2019-03-13T01:35:55.300Z,4.63
2019-03-13T01:38:25.097Z,4.64
2019-03-13T01:40:54.999Z,4.64
2019-03-13T01:43:25.278Z,4.65
2019-03-13T01:45:54.831Z,4.65
2019-03-13T01:48:25.171Z,4.68
2019-03-13T01:50:55.333Z,4.69
2019-03-13T01:53:25.065Z,4.69
2019-03-13T01:55:55.620Z,4.68
2019-03-13T01:58:26.562Z,4.70
2019-03-13T02:00:56.308Z,4.72
2019-03-13T02:03:25.981Z,4.71
2019-03-13T02:05:55.665Z,4.70
2019-03-13T02:08:25.434Z,4.70
2019-03-13T02:10:57.347Z,4.69
2019-03-13T02:13:27.021Z,4.68
2019-03-13T02:15:56.761Z,4.66
2019-03-13T02:18:26.439Z,4.61
2019-03-13T02:20:56.136Z,4.58
2019-03-13T02:23:26.468Z,4.56
2019-03-13T02:25:56.229Z,4.55
2019-03-13T02:28:28.171Z,4.51
2019-03-13T02:30:57.907Z,4.49
2019-03-13T02:33:27.585Z,4.49
2019-03-13T02:35:57.251Z,4.46
2019-03-13T02:38:26.957Z,4.44
2019-03-13T02:40:56.633Z,4.42
2019-03-13T02:43:26.311Z,4.41
2019-03-13T02:45:56.027Z,4.40
2019-03-13T02:48:26.478Z,4.37
2019-03-13T02:50:56.473Z,4.37
2019-03-13T02:53:26.299Z,4.37
2019-03-13T02:55:55.982Z,4.39
2019-03-13T02:58:26.231Z,4.38
2019-03-13T03:00:57.648Z,4.39
2019-03-13T03:03:29.943Z,4.43
2019-03-13T03:06:01.495Z,4.45
2019-03-13T03:08:31.285Z,4.45
2019-03-13T03:11:01.272Z,4.47
2019-03-13T03:13:31.845Z,4.46
2019-03-13T03:16:02.104Z,4.45
2019-03-13T03:18:31.750Z,4.45
2019-03-13T03:21:02.371Z,4.44
2019-03-13T03:23:32.157Z,4.43
2019-03-13T03:26:01.809Z,4.41
2019-03-13T03:28:32.257Z,4.37
2019-03-13T03:31:03.072Z,4.34
2019-03-13T03:33:32.689Z,4.31
2019-03-13T03:36:03.542Z,4.29
2019-03-13T03:38:34.076Z,4.25
2019-03-13T03:41:04.237Z,4.23
2019-03-13T03:43:40.416Z,4.19
2019-03-13T03:46:06.129Z,4.15
2019-03-13T03:48:36.135Z,4.14
2019-03-13T03:51:05.761Z,4.10
2019-03-13T03:53:35.593Z,4.06
2019-03-13T03:56:06.306Z,4.06
2019-03-13T03:58:36.810Z,4.04
2019-03-13T04:01:08.252Z,4.04
2019-03-13T04:03:39.197Z,4.06
2019-03-13T04:06:09.713Z,4.08
2019-03-13T04:08:39.833Z,4.09
2019-03-13T04:11:09.588Z,4.08
2019-03-13T04:13:39.234Z,4.08
2019-03-13T04:16:09.707Z,4.11
2019-03-13T04:18:39.433Z,4.12
2019-03-13T04:21:09.065Z,4.10
2019-03-13T04:23:38.797Z,4.10
2019-03-13T04:26:12.307Z,4.11
2019-03-13T04:28:39.786Z,4.10
2019-03-13T04:31:09.438Z,4.11
2019-03-13T04:33:39.323Z,4.11
2019-03-13T04:36:09.065Z,4.10
2019-03-13T04:38:38.725Z,4.09
2019-03-13T04:41:08.340Z,4.07
2019-03-13T04:43:39.094Z,4.06
2019-03-13T04:46:09.203Z,4.05
2019-03-13T04:48:42.058Z,4.02
2019-03-13T04:51:11.951Z,4.04
2019-03-13T04:53:41.687Z,4.03
2019-03-13T04:56:11.483Z,4.01
2019-03-13T04:58:41.757Z,4.01
2019-03-13T05:01:12.002Z,3.99
2019-03-13T05:03:41.614Z,3.97
2019-03-13T05:06:14.459Z,3.95
2019-03-13T05:08:45.718Z,3.95
2019-03-13T05:11:15.419Z,3.95
2019-03-13T05:13:46.282Z,3.96
2019-03-13T05:16:16.632Z,3.95
2019-03-13T05:18:46.625Z,3.93
2019-03-13T05:21:16.245Z,3.93
2019-03-13T05:23:46.961Z,3.92
2019-03-13T05:26:16.876Z,3.95
2019-03-13T05:28:46.353Z,3.96
2019-03-13T05:31:16.024Z,3.99
2019-03-13T05:33:45.638Z,4.03
2019-03-13T05:36:16.682Z,4.06
2019-03-13T05:38:46.609Z,4.09
2019-03-13T05:41:17.337Z,4.13
2019-03-13T05:43:46.952Z,4.17
2019-03-13T05:46:17.280Z,4.19
2019-03-13T05:48:47.170Z,4.32
2019-03-13T05:51:16.869Z,4.42
2019-03-13T05:53:46.521Z,4.40
2019-03-13T05:56:16.499Z,4.41
2019-03-13T05:58:46.111Z,4.42
2019-03-13T06:01:16.649Z,4.45
2019-03-13T06:03:46.579Z,4.47
2019-03-13T06:06:16.366Z,4.51
2019-03-13T06:08:46.322Z,4.55
2019-03-13T06:11:15.908Z,4.57
2019-03-13T06:13:47.349Z,4.62
2019-03-13T06:16:16.874Z,4.65
2019-03-13T06:18:46.491Z,4.70
2019-03-13T06:21:16.110Z,4.83
2019-03-13T06:23:48.031Z,4.90
2019-03-13T06:26:17.381Z,4.92
2019-03-13T06:28:47.096Z,4.96
2019-03-13T06:31:16.745Z,5.02
2019-03-13T06:33:46.364Z,5.08
2019-03-13T06:36:16.046Z,5.16
2019-03-13T06:38:46.879Z,5.20
2019-03-13T06:41:16.562Z,5.22
2019-03-13T06:43:46.170Z,5.29
2019-03-13T06:46:15.825Z,5.29
2019-03-13T06:48:45.478Z,5.28
2019-03-13T06:51:16.017Z,5.28
2019-03-13T06:53:45.672Z,5.23
2019-03-13T06:56:16.818Z,5.19
2019-03-13T06:58:51.341Z,5.10
2019-03-13T07:01:28.905Z,5.10
2019-03-13T07:04:00.764Z,5.05
2019-03-13T07:06:47.226Z,5.01
2019-03-13T07:09:34.797Z,4.98
2019-03-13T07:12:18.648Z,4.97
2019-03-13T07:14:52.735Z,4.97
2019-03-13T07:17:32.494Z,4.88
2019-03-13T07:20:03.784Z,4.90
2019-03-13T07:22:37.556Z,4.87
2019-03-13T07:25:25.296Z,4.87
2019-03-13T07:28:09.559Z,4.89
2019-03-13T07:30:41.178Z,4.87
2019-03-13T07:33:21.357Z,4.88
2019-03-13T07:35:55.581Z,4.93
2019-03-13T07:38:43.017Z,4.85
2019-03-13T07:41:17.710Z,4.81
2019-03-13T07:44:05.152Z,4.74
2019-03-13T07:46:42.266Z,4.74
2019-03-13T07:49:29.923Z,4.68
2019-03-13T07:52:01.319Z,4.68
2019-03-13T07:54:47.242Z,4.64
2019-03-13T07:57:19.215Z,4.66
2019-03-13T08:00:08.501Z,4.69
2019-03-13T08:02:39.961Z,4.73
2019-03-13T08:05:30.200Z,4.72
2019-03-13T08:08:17.303Z,4.73
2019-03-13T08:10:48.570Z,4.72
2019-03-13T08:13:22.925Z,4.69
2019-03-13T08:16:00.184Z,4.68
2019-03-13T08:18:34.239Z,4.67
2019-03-13T08:21:05.606Z,4.58
2019-03-13T08:23:36.938Z,4.50
2019-03-13T08:26:08.465Z,4.52
2019-03-13T08:28:39.720Z,4.49
2019-03-13T08:31:13.675Z,4.47
2019-03-13T08:34:06.051Z,4.46
2019-03-13T08:36:40.815Z,4.46
2019-03-13T08:39:14.836Z,4.44
2019-03-13T08:42:04.345Z,4.42
2019-03-13T08:44:38.702Z,4.40
2019-03-13T08:47:09.982Z,4.35
2019-03-13T08:49:55.986Z,4.37
2019-03-13T08:52:27.269Z,4.36
2019-03-13T08:55:07.661Z,4.35
2019-03-13T08:57:41.422Z,4.35
2019-03-13T09:00:23.299Z,4.38
2019-03-13T09:02:54.592Z,4.42
2019-03-13T09:05:28.554Z,4.46
2019-03-13T09:08:11.681Z,4.52
2019-03-13T09:10:45.665Z,4.53
2019-03-13T09:13:22.685Z,4.55
2019-03-13T09:15:53.934Z,4.58
2019-03-13T09:18:25.198Z,4.63
2019-03-13T09:20:56.484Z,4.76
2019-03-13T09:23:36.545Z,4.86
2019-03-13T09:26:22.988Z,4.86
2019-03-13T09:31:58.796Z,5.01
2019-03-13T09:34:42.032Z,5.19
2019-03-13T09:37:13.419Z,5.25
2019-03-13T09:39:53.601Z,5.26
2019-03-13T09:42:27.291Z,5.35
2019-03-13T09:45:10.975Z,5.48
2019-03-13T09:47:42.288Z,5.57
2019-03-13T09:50:30.104Z,5.72
2019-03-13T09:53:07.658Z,5.74
2019-03-13T09:55:50.917Z,5.74
2019-03-13T09:58:22.201Z,5.72
2019-03-13T10:00:56.298Z,5.79
2019-03-13T10:03:45.741Z,5.81
2019-03-13T10:06:22.465Z,5.87
2019-03-13T10:08:53.162Z,5.97
2019-03-13T10:11:24.427Z,5.97
2019-03-13T10:13:55.672Z,5.86
2019-03-13T10:16:29.837Z,5.83
2019-03-13T10:19:01.937Z,5.94
2019-03-13T10:21:35.674Z,6.21
2019-03-13T10:24:07.098Z,6.32
2019-03-13T10:26:41.140Z,6.27
2019-03-13T10:29:14.966Z,6.22
2019-03-13T10:31:46.940Z,6.26
2019-03-13T10:34:27.237Z,6.36
2019-03-13T10:37:04.406Z,6.57
2019-03-13T10:39:35.725Z,6.74
2019-03-13T10:42:19.440Z,7.00
2019-03-13T10:44:51.119Z,7.24
2019-03-13T10:47:22.717Z,7.38
2019-03-13T10:49:59.672Z,7.37
2019-03-13T10:52:30.930Z,7.38
2019-03-13T10:55:02.190Z,7.48
2019-03-13T10:57:49.633Z,7.75
2019-03-13T11:00:20.972Z,7.83
2019-03-13T11:03:01.282Z,7.81
2019-03-13T11:05:41.351Z,7.74
2019-03-13T11:08:18.530Z,7.78
2019-03-13T11:10:49.784Z,7.78
2019-03-13T11:13:21.034Z,7.83
2019-03-13T11:15:52.544Z,8.04
2019-03-13T11:18:26.661Z,8.12
2019-03-13T11:21:00.617Z,8.24
2019-03-13T11:23:31.875Z,8.27
2019-03-13T11:26:06.208Z,8.19
2019-03-13T11:28:46.577Z,8.27
2019-03-13T11:31:18.627Z,8.42
2019-03-13T11:34:06.453Z,8.82
2019-03-13T11:36:52.764Z,9.01
2019-03-13T11:39:26.652Z,9.18
2019-03-13T11:42:10.137Z,9.22
2019-03-13T11:44:53.117Z,9.27
2019-03-13T11:47:26.904Z,9.37
2019-03-13T11:50:11.165Z,9.35
2019-03-13T11:52:48.439Z,9.26
2019-03-13T11:55:22.644Z,9.34
2019-03-13T11:58:05.940Z,9.62
2019-03-13T12:00:40.445Z,9.59
2019-03-13T12:03:14.809Z,9.84
2019-03-13T12:05:46.074Z,10.26
2019-03-13T12:08:17.401Z,10.35
2019-03-13T12:10:48.699Z,10.36
2019-03-13T12:13:25.857Z,10.41
2019-03-13T12:15:57.168Z,10.20
2019-03-13T12:18:34.506Z,10.12
2019-03-13T12:21:15.104Z,10.17
2019-03-13T12:23:46.361Z,10.34
2019-03-13T12:26:35.761Z,10.35
2019-03-13T12:29:23.388Z,10.35
2019-03-13T12:31:54.938Z,10.29
2019-03-13T12:34:29.213Z,11.22
2019-03-13T12:37:00.586Z,12.47
2019-03-13T12:39:48.583Z,12.93
2019-03-13T12:42:36.968Z,13.76
2019-03-13T12:45:14.221Z,12.70
2019-03-13T12:48:00.965Z,14.39
2019-03-13T12:50:38.123Z,15.95
2019-03-13T12:53:09.492Z,16.83
2019-03-13T12:55:49.530Z,17.07
2019-03-13T12:58:20.797Z,15.94
2019-03-13T13:00:52.190Z,15.44
2019-03-13T13:03:40.032Z,14.01
2019-03-13T13:06:11.408Z,13.01
2019-03-13T13:08:51.579Z,12.21
2019-03-13T13:11:28.615Z,14.52
2019-03-13T13:14:14.863Z,13.22
2019-03-13T13:17:01.227Z,12.13
2019-03-13T13:19:31.158Z,11.47
2019-03-13T13:22:00.786Z,11.14
2019-03-13T13:24:30.396Z,11.08
2019-03-13T13:27:00.582Z,11.10
2019-03-13T13:29:30.215Z,11.29
2019-03-13T13:31:59.831Z,12.54
2019-03-13T13:34:29.602Z,12.57
2019-03-13T13:36:59.286Z,11.82
2019-03-13T13:39:29.254Z,11.26
2019-03-13T13:41:59.506Z,10.86
2019-03-13T13:44:29.462Z,10.60
2019-03-13T13:46:59.080Z,10.42
2019-03-13T13:49:28.940Z,10.29
2019-03-13T13:51:59.457Z,10.16
2019-03-13T13:54:29.350Z,10.02
2019-03-13T13:56:59.468Z,9.94
2019-03-13T13:59:29.463Z,9.83
2019-03-13T14:01:59.548Z,9.78
2019-03-13T14:04:29.230Z,9.65
2019-03-13T14:06:58.835Z,9.58
2019-03-13T14:09:28.453Z,9.51
2019-03-13T14:11:58.233Z,9.41
2019-03-13T14:14:27.852Z,9.38
2019-03-13T14:16:57.467Z,9.37
2019-03-13T14:19:27.241Z,9.34
2019-03-13T14:21:56.968Z,9.33
2019-03-13T14:24:26.581Z,9.35
2019-03-13T14:26:56.260Z,9.36
2019-03-13T14:29:26.042Z,9.40
2019-03-13T14:31:55.762Z,9.34
2019-03-13T14:34:25.447Z,9.28
2019-03-13T14:36:55.616Z,9.25
2019-03-13T14:39:25.238Z,9.25
2019-03-13T14:41:54.912Z,9.26
2019-03-13T14:44:24.633Z,9.24
2019-03-13T14:46:54.255Z,9.23
2019-03-13T14:49:23.959Z,9.29
2019-03-13T14:51:53.560Z,9.28
2019-03-13T14:54:23.308Z,9.26
2019-03-13T14:56:52.978Z,9.24
2019-03-13T14:59:23.062Z,9.14
2019-03-13T15:01:52.678Z,9.06
2019-03-13T15:04:23.112Z,9.05
2019-03-13T15:06:52.718Z,9.00
2019-03-13T15:09:22.339Z,8.95
2019-03-13T15:11:52.707Z,8.84
2019-03-13T15:14:23.420Z,8.72
2019-03-13T15:16:53.464Z,8.63
2019-03-13T15:19:24.906Z,8.56
2019-03-13T15:21:54.512Z,8.55
2019-03-13T15:24:24.201Z,8.51
2019-03-13T15:26:53.890Z,8.49
2019-03-13T15:29:23.870Z,8.51
2019-03-13T15:31:53.867Z,8.47
2019-03-13T15:34:23.749Z,8.41
2019-03-13T15:36:53.340Z,8.35
2019-03-13T15:39:22.950Z,8.32
2019-03-13T15:41:52.680Z,8.30
2019-03-13T15:44:22.359Z,8.31
2019-03-13T15:46:51.920Z,8.29
2019-03-13T15:49:22.551Z,8.28
2019-03-13T15:51:52.231Z,8.28
2019-03-13T15:54:21.851Z,8.28
2019-03-13T15:56:52.274Z,8.29
2019-03-13T15:59:22.702Z,8.29
2019-03-13T16:01:53.778Z,8.29
2019-03-13T16:04:23.484Z,8.26
2019-03-13T16:06:54.088Z,8.26
2019-03-13T16:09:23.706Z,8.27
2019-03-13T16:11:53.488Z,8.28
2019-03-13T16:14:24.752Z,8.29
2019-03-13T16:16:55.747Z,8.29
2019-03-13T16:19:25.442Z,8.28
2019-03-13T16:21:55.480Z,8.28
2019-03-13T16:24:26.739Z,8.27
2019-03-13T16:26:56.398Z,8.27
2019-03-13T16:29:26.010Z,8.24
2019-03-13T16:31:55.702Z,8.23
2019-03-13T16:34:25.392Z,8.20
2019-03-13T16:36:55.583Z,8.18
2019-03-13T16:39:25.567Z,8.17
2019-03-13T16:41:55.894Z,8.17
2019-03-13T16:44:27.148Z,8.14
2019-03-13T16:46:56.769Z,8.13
2019-03-13T16:49:26.449Z,8.13
2019-03-13T16:51:56.373Z,8.13
2019-03-13T16:54:26.007Z,8.12
2019-03-13T16:56:55.913Z,8.12
2019-03-13T16:59:26.624Z,8.11
2019-03-13T17:01:57.052Z,8.10
2019-03-13T17:04:26.739Z,8.10
2019-03-13T17:06:56.359Z,8.08
2019-03-13T17:09:27.907Z,8.07
2019-03-13T17:11:57.575Z,8.07
2019-03-13T17:14:28.170Z,8.06
2019-03-13T17:16:57.872Z,8.06
2019-03-13T17:19:27.556Z,8.04
2019-03-13T17:21:57.648Z,8.03
2019-03-13T17:24:27.255Z,8.02
2019-03-13T17:26:57.093Z,8.01
2019-03-13T17:29:26.714Z,7.98
2019-03-13T17:31:56.594Z,7.97
2019-03-13T17:34:26.745Z,7.95
2019-03-13T17:36:56.595Z,7.96
2019-03-13T17:39:26.469Z,7.96
2019-03-13T17:41:56.160Z,7.93
2019-03-13T17:44:26.107Z,7.93
2019-03-13T17:46:55.797Z,7.94
2019-03-13T17:49:25.477Z,7.94
2019-03-13T17:51:55.068Z,7.94
2019-03-13T17:54:27.409Z,7.94
2019-03-13T17:56:57.075Z,7.94
2019-03-13T17:59:27.544Z,7.95
2019-03-13T18:01:57.162Z,7.96
2019-03-13T18:04:27.691Z,7.96
2019-03-13T18:06:57.306Z,7.96
2019-03-13T18:09:26.930Z,7.97
2019-03-13T18:11:56.594Z,7.97
2019-03-13T18:14:32.185Z,7.96
2019-03-13T18:17:01.593Z,7.99
2019-03-13T18:19:31.285Z,7.98
2019-03-13T18:22:00.896Z,7.99
2019-03-13T18:24:30.499Z,7.98
2019-03-13T18:27:00.766Z,7.97
2019-03-13T18:29:30.386Z,7.96
2019-03-13T18:31:59.987Z,7.97
2019-03-13T18:34:29.510Z,7.97
2019-03-13T18:36:59.121Z,7.96
2019-03-13T18:39:28.749Z,7.95
2019-03-13T18:41:58.431Z,7.94
2019-03-13T18:44:28.219Z,7.93
2019-03-13T18:46:57.835Z,7.94
2019-03-13T18:49:27.479Z,7.93
2019-03-13T18:51:57.087Z,7.93
2019-03-13T18:54:26.724Z,7.92
2019-03-13T18:56:56.371Z,7.92
2019-03-13T18:59:25.975Z,7.92
2019-03-13T19:01:55.594Z,7.93
2019-03-13T19:04:25.343Z,7.93
2019-03-13T19:06:55.867Z,7.92
2019-03-13T19:09:25.558Z,7.94
2019-03-13T19:11:55.216Z,7.94
2019-03-13T19:14:24.833Z,7.94
2019-03-13T19:16:54.832Z,7.93
2019-03-13T19:19:25.084Z,7.93
2019-03-13T19:21:54.719Z,7.93
2019-03-13T19:24:25.082Z,7.92
2019-03-13T19:26:54.769Z,7.92
2019-03-13T19:29:24.746Z,7.93
2019-03-13T19:31:54.353Z,7.95
2019-03-13T19:34:24.074Z,7.96
2019-03-13T19:36:53.859Z,7.96
2019-03-13T19:39:23.499Z,7.96
2019-03-13T19:41:53.955Z,7.98
2019-03-13T19:44:23.566Z,7.97
2019-03-13T19:46:53.204Z,7.97
2019-03-13T19:49:22.862Z,7.97
2019-03-13T19:51:55.363Z,7.98
2019-03-13T19:54:24.964Z,7.97
2019-03-13T19:56:54.670Z,7.95
2019-03-13T19:59:24.564Z,7.93
2019-03-13T20:01:54.199Z,7.91
2019-03-13T20:04:23.849Z,7.90
2019-03-13T20:06:53.848Z,7.89
2019-03-13T20:09:24.966Z,7.87
2019-03-13T20:11:54.676Z,7.86
2019-03-13T20:14:24.665Z,7.85
2019-03-13T20:16:54.937Z,7.84
2019-03-13T20:19:24.585Z,7.83
2019-03-13T20:21:54.197Z,7.82
2019-03-13T20:24:23.801Z,7.81
2019-03-13T20:26:54.354Z,7.81
2019-03-13T20:29:24.026Z,7.80
2019-03-13T20:31:54.014Z,7.79
2019-03-13T20:34:23.758Z,7.78
2019-03-13T20:36:53.562Z,7.85
2019-03-13T20:39:23.174Z,7.95
2019-03-13T20:41:54.263Z,7.93
2019-03-13T20:44:24.067Z,7.90
2019-03-13T20:46:54.847Z,7.89
2019-03-13T20:49:24.515Z,7.88
2019-03-13T20:51:54.970Z,7.89
2019-03-13T20:54:26.416Z,7.90
2019-03-13T20:57:00.873Z,7.89
2019-03-13T20:59:32.589Z,7.89
2019-03-13T21:02:01.966Z,7.92
2019-03-13T21:04:32.993Z,8.03
2019-03-13T21:07:05.054Z,8.05
2019-03-13T21:09:34.762Z,8.03
2019-03-13T21:12:04.660Z,8.02
2019-03-13T21:14:36.276Z,8.02
2019-03-13T21:17:06.706Z,8.03
2019-03-13T21:19:36.440Z,8.04
2019-03-13T21:22:06.025Z,8.06
2019-03-13T21:24:35.749Z,8.14
2019-03-13T21:27:05.347Z,8.17
2019-03-13T21:29:34.948Z,8.14
2019-03-13T21:32:06.236Z,8.13
2019-03-13T21:34:36.218Z,8.13
2019-03-13T21:37:05.937Z,8.13
2019-03-13T21:39:35.613Z,8.14
2019-03-13T21:42:05.260Z,8.16
2019-03-13T21:44:34.858Z,8.14
2019-03-13T21:47:04.652Z,8.14
2019-03-13T21:49:34.625Z,8.16
2019-03-13T21:52:05.865Z,8.17
2019-03-13T21:54:35.609Z,8.18
2019-03-13T21:57:05.714Z,8.28
2019-03-13T21:59:35.340Z,8.28
2019-03-13T22:02:08.322Z,8.29
2019-03-13T22:04:38.198Z,8.30
2019-03-13T22:07:07.875Z,8.30
2019-03-13T22:09:37.552Z,8.30
2019-03-13T22:12:07.155Z,8.30
2019-03-13T22:14:38.579Z,8.30
2019-03-13T22:17:08.190Z,8.27
2019-03-13T22:19:37.790Z,8.27
2019-03-13T22:22:08.261Z,8.25
2019-03-13T22:24:37.947Z,8.25
2019-03-13T22:27:07.555Z,8.22
2019-03-13T22:29:37.243Z,8.19
2019-03-13T22:32:06.885Z,8.14
2019-03-13T22:34:36.483Z,8.09
2019-03-13T22:37:06.093Z,8.07
2019-03-13T22:39:36.622Z,8.03
2019-03-13T22:42:06.292Z,7.96
2019-03-13T22:44:35.715Z,7.91
2019-03-13T22:47:05.450Z,7.92
2019-03-13T22:49:35.735Z,7.96
2019-03-13T22:52:05.414Z,7.97
2019-03-13T22:54:35.054Z,7.95
2019-03-13T22:57:06.546Z,7.96
2019-03-13T22:59:36.155Z,7.97
2019-03-13T23:02:07.572Z,7.96
2019-03-13T23:04:37.462Z,7.94
2019-03-13T23:07:07.533Z,7.91
2019-03-13T23:09:37.439Z,7.85
2019-03-13T23:12:07.050Z,7.77
2019-03-13T23:14:37.128Z,7.72
2019-03-13T23:17:06.806Z,7.68
2019-03-13T23:19:36.481Z,7.66
2019-03-13T23:22:06.221Z,7.68
2019-03-13T23:24:38.061Z,7.68
2019-03-13T23:27:07.518Z,7.64
2019-03-13T23:29:37.184Z,7.61
2019-03-13T23:32:06.992Z,7.57
2019-03-13T23:34:36.671Z,7.52
2019-03-13T23:37:06.482Z,7.49
2019-03-13T23:39:36.191Z,7.43
2019-03-13T23:42:05.931Z,7.38
2019-03-13T23:44:36.196Z,7.32
2019-03-13T23:47:05.994Z,7.27
2019-03-13T23:49:35.674Z,7.23
2019-03-13T23:52:05.533Z,7.19
2019-03-13T23:54:35.209Z,7.16
2019-03-13T23:57:05.818Z,7.16
2019-03-13T23:59:35.486Z,7.14
